Bracey, VA

08:11 EDT le 22 octobre 2014 (GMT -0400)
Mecklenburg-Brunswick Regional | Change Station
CLOSE
Current Station
Aéroport
Location: South Hill,
Altitude: 443 ft
Stations météo à proximité

Alt. 443 ft 36.69 °N, 78.05 °W | Updated 16 minutes ago

Nuageux
Nuageux
52 ° F
Paraît 52 ° F
N
6
Vent Variable Vent de ONO

Aujourd'hui
Haut(e) -- | Bas -- ° F
--% Risque de précip.
Hier
Haut(e) -- | Bas -- ° F
Precip. -- pouce
7:26 AM 6:27 PM
Lune descendante, 2% visible
Pression 29.98 pouce
Visibilité 10.0 Miles terrestres
Nuages Couvert 3500 ft
Point de rosée 46 ° F
Humidité 82%
Précipitations 0.00 pouce
Profondeur de la couche neigeuse Non disponible.
UV 0 sur 12
Pollen 1.80 sur 12
Qualité de l'air Non disponible.
Flu Activity Local Activity
METAR KAVC 221155Z AUTO 30005KT 10SM OVC035 11/08 A2998 RMK AO2

More Conditions Fewer Conditions

Pression 29.98 pouce
Visibilité 10.0 Miles terrestres
Nuages Couvert 3500 ft
Point de rosée 46 ° F
Humidité 82%
Précipitations 0.00 pouce
Profondeur de la couche neigeuse Non disponible.
UV 0 sur 12
Pollen 1.80 sur 12
Qualité de l'air Non disponible.
Flu Activity Local Activity
METAR KAVC 221155Z AUTO 30005KT 10SM OVC035 11/08 A2998 RMK AO2

More Conditions Fewer Conditions

10-Day Weather Forecast

Almanac

Astronomie

Oct. 22, 2014 Lever Coucher
Temps réel 07:26 EDT 18:27 EDT
Crépuscule civil 06:59 EDT 18:53 EDT
Crépuscule nautique 06:29 EDT 19:23 EDT
Crépuscule astronomique 05:59 EDT 19:53 EDT
Lune 06:07 EDT 17:51 EDT
Durée de lumière visible 11h 53m
Longueur du jour
11h 00m
Tomorrow will be 2m 10s shorter.
Lune descendante, 2% of the Moon is Illuminated
Aujourd'hui
Lune descendante
Oct 23
Nouveau
Oct 30
Premier quartier
Nov 6
Pleine lune
Nov 14
Dernier quartier

Extrêmes aujourd'hui

State Highs State Lows

Community

WunderPhotos

Upload Photos

1,763,906 Photos téléchargées !

Nearby

Épaisseur de neige

Station Depth Altitude
Pas de nouvelles chutes de neige

Activité sismique

Ville Distance Mag. Time & Date
No recent earthquake activity has been reported nearby.
Minimum magnitude displayed is 2.5.

Températures des eaux côtières

Lieu Température
Aucun rapport de station

Stations météo à proximité